Rejestracja

Wszystkie dane podawane są w czasie UTC za wyjątkiem miejsc gdzie jest jednoznacznie podane, że jest inaczej. Dane podawane w serwisie mają charakter informacyjny!!!
Informacje w sprawie dostępu do serwisu pod numerem tel. +48 261-828-138
Informacja dla żołnierzy i pracowników wojska: Prosimy o niezwłoczną zmianę adresu e-mail w profilu użytkownika na pocztę w domenie @ron.mil.pl

Aktualna Pogoda
 
Pogoda w Polsce
3°C Szczecin 1°C Suwałki 1°C Warszawa 1°C Poznan
0°C Opole 2°C Kraków 1°C Rzeszów
Więcej miast w Polsce

Pogoda w Europie
0°C Berlin 2°C Paryz 2°C Bruksela 5°C Oslo
-0°C Praga 3°C Zagrzeb
Więcej miast w Europie

Metary wojskowe test
METAR EPCE 202330Z 26018KT 9999 OVC010 03/01 Q1036 RMK 034 087 8/8=
METAR EPDA 202330Z 23011KT 160V260 9999 OVC013 04/02 Q1038 RMK 042 087 8/8=
METAR EPDE 202330Z AUTO 25008KT 9999 00/M02 Q1041 RMK 001 083 ///=
METAR EPIR 202300Z 24010KT 9999 NSC 01/M02 Q1040 RMK 008 084 3/3=
METAR EPKS 202330Z 24009KT 210V280 5000 BR OVC004 00/00 Q1043 RMK 003 100 8/8=
METAR EPLK 202330Z 22005KT 9999 NSC M01/M03 Q1042 RMK M014 092 0/0=
METAR EPLY 202300Z 24008KT 9999 NSC 00/M01 Q1042 RMK 002 089 5/5=
METAR EPMB 202300Z 27013KT 9999 FEW020 BKN070 02/M00 Q1037 RMK 022 083 5/2=
METAR EPMI 202300Z 25010KT 9999 BKN006 01/00 Q1041 RMK 014 092 7/7=
METAR EPMM 202330Z 25010KT 220V280 9999 SCT070 M00/M03 Q1039 RMK M003 085 3/3=
METAR EPOK 202330Z 28015KT 250V320 9999 OVC012 05/02 Q1034 RMK 046 084 8/8=
METAR EPPR 202330Z AUTO 25012G24KT VV016 04/00 Q1036 RMK 040 076 ///=
METAR EPPW 202330Z 27014KT 5000 BR OVC004 M00/M00 Q1042 RMK M001 099 8/8=
METAR EPSN 202330Z 23010KT 9999 BKN008 02/02 Q1039 RMK 019 098 7/7=
METAR EPTM 202330Z AUTO 23006KT M00/M02 Q1042 RMK M005 086 ///=


 

Prawa autorskie©2007 SSH SZ RP. Wszelkie prawa zastrzeżone.